sensor_id;sensor_type;location;lat;lon;timestamp;P1;durP1;ratioP1;P2;durP2;ratioP2
59728;SDS011;45588;51.598;5.618;2024-01-11T00:00:03;39.28;;;21.17;;
59728;SDS011;45588;51.598;5.618;2024-01-11T00:02:28;35.92;;;21.05;;
59728;SDS011;45588;51.598;5.618;2024-01-11T00:04:53;42.92;;;23.92;;
59728;SDS011;45588;51.598;5.618;2024-01-11T00:07:19;42.53;;;22.10;;
59728;SDS011;45588;51.598;5.618;2024-01-11T00:09:44;38.28;;;20.25;;
59728;SDS011;45588;51.598;5.618;2024-01-11T00:12:09;40.33;;;19.73;;
59728;SDS011;45588;51.598;5.618;2024-01-11T00:14:35;46.50;;;22.95;;
59728;SDS011;45588;51.598;5.618;2024-01-11T00:17:00;43.80;;;23.35;;
59728;SDS011;45588;51.598;5.618;2024-01-11T00:19:25;40.15;;;19.98;;
59728;SDS011;45588;51.598;5.618;2024-01-11T00:21:50;40.63;;;19.25;;
59728;SDS011;45588;51.598;5.618;2024-01-11T00:24:16;33.90;;;17.88;;
59728;SDS011;45588;51.598;5.618;2024-01-11T00:26:41;38.35;;;20.02;;
59728;SDS011;45588;51.598;5.618;2024-01-11T00:29:06;38.63;;;19.10;;
59728;SDS011;45588;51.598;5.618;2024-01-11T00:31:32;48.10;;;23.20;;
59728;SDS011;45588;51.598;5.618;2024-01-11T00:33:57;41.90;;;22.42;;
59728;SDS011;45588;51.598;5.618;2024-01-11T00:36:22;42.38;;;21.67;;
59728;SDS011;45588;51.598;5.618;2024-01-11T00:38:47;45.95;;;23.80;;
59728;SDS011;45588;51.598;5.618;2024-01-11T00:41:12;39.92;;;22.88;;
59728;SDS011;45588;51.598;5.618;2024-01-11T00:43:38;46.42;;;27.15;;
59728;SDS011;45588;51.598;5.618;2024-01-11T00:46:03;44.92;;;24.75;;
59728;SDS011;45588;51.598;5.618;2024-01-11T00:48:28;45.75;;;24.45;;
59728;SDS011;45588;51.598;5.618;2024-01-11T00:50:53;47.28;;;25.35;;
59728;SDS011;45588;51.598;5.618;2024-01-11T00:53:19;50.15;;;25.30;;
59728;SDS011;45588;51.598;5.618;2024-01-11T00:55:44;47.33;;;23.85;;
59728;SDS011;45588;51.598;5.618;2024-01-11T00:58:09;46.53;;;21.55;;
59728;SDS011;45588;51.598;5.618;2024-01-11T01:00:34;41.90;;;22.35;;
59728;SDS011;45588;51.598;5.618;2024-01-11T01:02:59;37.63;;;20.55;;
59728;SDS011;45588;51.598;5.618;2024-01-11T01:05:25;46.95;;;23.33;;
59728;SDS011;45588;51.598;5.618;2024-01-11T01:07:50;49.92;;;23.90;;
59728;SDS011;45588;51.598;5.618;2024-01-11T01:10:15;47.78;;;24.67;;
59728;SDS011;45588;51.598;5.618;2024-01-11T01:12:40;50.42;;;23.88;;
59728;SDS011;45588;51.598;5.618;2024-01-11T01:15:05;49.25;;;24.13;;
59728;SDS011;45588;51.598;5.618;2024-01-11T01:17:31;47.50;;;24.08;;
59728;SDS011;45588;51.598;5.618;2024-01-11T01:19:56;45.60;;;21.52;;
59728;SDS011;45588;51.598;5.618;2024-01-11T01:22:22;43.85;;;22.55;;
59728;SDS011;45588;51.598;5.618;2024-01-11T01:24:47;37.72;;;20.15;;
59728;SDS011;45588;51.598;5.618;2024-01-11T01:27:12;44.78;;;19.90;;
59728;SDS011;45588;51.598;5.618;2024-01-11T01:29:38;40.92;;;19.73;;
59728;SDS011;45588;51.598;5.618;2024-01-11T01:32:03;45.67;;;20.85;;
59728;SDS011;45588;51.598;5.618;2024-01-11T01:34:28;40.63;;;20.23;;
59728;SDS011;45588;51.598;5.618;2024-01-11T01:36:53;40.55;;;19.95;;
59728;SDS011;45588;51.598;5.618;2024-01-11T01:39:18;44.42;;;20.77;;
59728;SDS011;45588;51.598;5.618;2024-01-11T01:41:44;38.25;;;20.10;;
59728;SDS011;45588;51.598;5.618;2024-01-11T01:44:09;44.83;;;21.83;;
59728;SDS011;45588;51.598;5.618;2024-01-11T01:46:34;47.33;;;21.25;;
59728;SDS011;45588;51.598;5.618;2024-01-11T01:48:59;48.85;;;22.33;;
59728;SDS011;45588;51.598;5.618;2024-01-11T01:51:26;41.15;;;21.45;;
59728;SDS011;45588;51.598;5.618;2024-01-11T01:53:53;56.17;;;24.35;;
59728;SDS011;45588;51.598;5.618;2024-01-11T01:56:21;40.03;;;19.63;;
59728;SDS011;45588;51.598;5.618;2024-01-11T01:58:47;41.67;;;22.30;;
59728;SDS011;45588;51.598;5.618;2024-01-11T02:01:13;46.17;;;23.38;;
59728;SDS011;45588;51.598;5.618;2024-01-11T02:03:38;40.88;;;18.13;;
59728;SDS011;45588;51.598;5.618;2024-01-11T02:06:05;44.75;;;19.85;;
59728;SDS011;45588;51.598;5.618;2024-01-11T02:08:30;40.92;;;19.25;;
59728;SDS011;45588;51.598;5.618;2024-01-11T02:10:57;44.35;;;18.95;;
59728;SDS011;45588;51.598;5.618;2024-01-11T02:13:24;38.72;;;16.65;;
59728;SDS011;45588;51.598;5.618;2024-01-11T02:15:49;41.63;;;18.95;;
59728;SDS011;45588;51.598;5.618;2024-01-11T02:18:14;50.10;;;20.35;;
59728;SDS011;45588;51.598;5.618;2024-01-11T02:20:39;42.85;;;23.08;;
59728;SDS011;45588;51.598;5.618;2024-01-11T02:23:08;43.70;;;23.08;;
59728;SDS011;45588;51.598;5.618;2024-01-11T02:25:37;46.45;;;22.75;;
59728;SDS011;45588;51.598;5.618;2024-01-11T02:28:02;45.75;;;21.35;;
59728;SDS011;45588;51.598;5.618;2024-01-11T02:30:27;48.00;;;22.80;;
59728;SDS011;45588;51.598;5.618;2024-01-11T02:32:53;39.45;;;18.45;;
59728;SDS011;45588;51.598;5.618;2024-01-11T02:35:18;42.95;;;21.42;;
59728;SDS011;45588;51.598;5.618;2024-01-11T02:37:43;41.75;;;20.42;;
59728;SDS011;45588;51.598;5.618;2024-01-11T02:40:09;44.35;;;20.63;;
59728;SDS011;45588;51.598;5.618;2024-01-11T02:42:35;46.78;;;23.52;;
59728;SDS011;45588;51.598;5.618;2024-01-11T02:45:01;44.08;;;22.08;;
59728;SDS011;45588;51.598;5.618;2024-01-11T02:47:28;42.72;;;20.80;;
59728;SDS011;45588;51.598;5.618;2024-01-11T02:49:53;41.00;;;20.25;;
59728;SDS011;45588;51.598;5.618;2024-01-11T02:52:18;48.65;;;20.38;;
59728;SDS011;45588;51.598;5.618;2024-01-11T02:54:43;59.00;;;24.90;;
59728;SDS011;45588;51.598;5.618;2024-01-11T02:57:09;48.92;;;25.45;;
59728;SDS011;45588;51.598;5.618;2024-01-11T02:59:34;45.10;;;19.75;;
59728;SDS011;45588;51.598;5.618;2024-01-11T03:01:59;48.88;;;23.30;;
59728;SDS011;45588;51.598;5.618;2024-01-11T03:04:24;47.08;;;21.13;;
59728;SDS011;45588;51.598;5.618;2024-01-11T03:06:49;41.33;;;19.30;;
59728;SDS011;45588;51.598;5.618;2024-01-11T03:09:15;45.42;;;20.13;;
59728;SDS011;45588;51.598;5.618;2024-01-11T03:11:40;38.30;;;19.55;;
59728;SDS011;45588;51.598;5.618;2024-01-11T03:14:05;37.65;;;19.90;;
59728;SDS011;45588;51.598;5.618;2024-01-11T03:16:31;52.00;;;22.95;;
59728;SDS011;45588;51.598;5.618;2024-01-11T03:18:56;47.25;;;21.08;;
59728;SDS011;45588;51.598;5.618;2024-01-11T03:21:21;43.28;;;22.90;;
59728;SDS011;45588;51.598;5.618;2024-01-11T03:23:47;54.55;;;23.77;;
59728;SDS011;45588;51.598;5.618;2024-01-11T03:26:18;43.97;;;18.95;;
59728;SDS011;45588;51.598;5.618;2024-01-11T03:28:43;51.33;;;23.02;;
59728;SDS011;45588;51.598;5.618;2024-01-11T03:31:09;39.72;;;18.75;;
59728;SDS011;45588;51.598;5.618;2024-01-11T03:33:34;44.15;;;18.85;;
59728;SDS011;45588;51.598;5.618;2024-01-11T03:35:59;41.03;;;19.52;;
59728;SDS011;45588;51.598;5.618;2024-01-11T03:38:24;40.92;;;19.67;;
59728;SDS011;45588;51.598;5.618;2024-01-11T03:40:50;38.63;;;18.88;;
59728;SDS011;45588;51.598;5.618;2024-01-11T03:43:17;42.15;;;19.30;;
59728;SDS011;45588;51.598;5.618;2024-01-11T03:45:42;45.60;;;20.35;;
59728;SDS011;45588;51.598;5.618;2024-01-11T03:48:07;37.22;;;17.65;;
59728;SDS011;45588;51.598;5.618;2024-01-11T03:50:32;49.55;;;20.77;;
59728;SDS011;45588;51.598;5.618;2024-01-11T03:52:57;35.17;;;17.92;;
59728;SDS011;45588;51.598;5.618;2024-01-11T03:55:23;41.00;;;19.80;;
59728;SDS011;45588;51.598;5.618;2024-01-11T03:57:48;41.85;;;18.23;;
59728;SDS011;45588;51.598;5.618;2024-01-11T04:00:13;42.75;;;20.75;;
59728;SDS011;45588;51.598;5.618;2024-01-11T04:02:38;41.15;;;20.75;;
59728;SDS011;45588;51.598;5.618;2024-01-11T04:05:04;46.40;;;21.90;;
59728;SDS011;45588;51.598;5.618;2024-01-11T04:07:29;53.58;;;22.35;;
59728;SDS011;45588;51.598;5.618;2024-01-11T04:09:54;53.13;;;25.42;;
59728;SDS011;45588;51.598;5.618;2024-01-11T04:12:19;55.55;;;25.88;;
59728;SDS011;45588;51.598;5.618;2024-01-11T04:14:45;49.33;;;25.70;;
59728;SDS011;45588;51.598;5.618;2024-01-11T04:17:10;45.22;;;21.33;;
59728;SDS011;45588;51.598;5.618;2024-01-11T04:19:35;64.55;;;26.58;;
59728;SDS011;45588;51.598;5.618;2024-01-11T04:22:00;49.90;;;23.27;;
59728;SDS011;45588;51.598;5.618;2024-01-11T04:24:25;56.63;;;27.77;;
59728;SDS011;45588;51.598;5.618;2024-01-11T04:26:50;45.72;;;24.00;;
59728;SDS011;45588;51.598;5.618;2024-01-11T04:29:16;53.78;;;24.20;;
59728;SDS011;45588;51.598;5.618;2024-01-11T04:31:42;51.30;;;26.65;;
59728;SDS011;45588;51.598;5.618;2024-01-11T04:34:07;49.58;;;24.05;;
59728;SDS011;45588;51.598;5.618;2024-01-11T04:36:32;45.72;;;21.88;;
59728;SDS011;45588;51.598;5.618;2024-01-11T04:38:57;42.20;;;19.92;;
59728;SDS011;45588;51.598;5.618;2024-01-11T04:41:23;39.17;;;19.67;;
59728;SDS011;45588;51.598;5.618;2024-01-11T04:43:48;39.72;;;20.83;;
59728;SDS011;45588;51.598;5.618;2024-01-11T04:46:16;42.80;;;19.35;;
59728;SDS011;45588;51.598;5.618;2024-01-11T04:48:42;43.67;;;21.60;;
59728;SDS011;45588;51.598;5.618;2024-01-11T04:51:07;43.63;;;18.70;;
59728;SDS011;45588;51.598;5.618;2024-01-11T04:53:33;39.63;;;18.45;;
59728;SDS011;45588;51.598;5.618;2024-01-11T04:55:58;42.00;;;19.33;;
59728;SDS011;45588;51.598;5.618;2024-01-11T04:58:23;44.13;;;21.42;;
59728;SDS011;45588;51.598;5.618;2024-01-11T05:00:48;36.15;;;19.48;;
59728;SDS011;45588;51.598;5.618;2024-01-11T05:03:14;51.22;;;20.83;;
59728;SDS011;45588;51.598;5.618;2024-01-11T05:05:39;41.83;;;20.90;;
59728;SDS011;45588;51.598;5.618;2024-01-11T05:08:04;44.42;;;20.23;;
59728;SDS011;45588;51.598;5.618;2024-01-11T05:10:29;41.45;;;19.73;;
59728;SDS011;45588;51.598;5.618;2024-01-11T05:12:54;44.10;;;18.25;;
59728;SDS011;45588;51.598;5.618;2024-01-11T05:15:20;36.95;;;17.67;;
59728;SDS011;45588;51.598;5.618;2024-01-11T05:17:45;48.03;;;22.40;;
59728;SDS011;45588;51.598;5.618;2024-01-11T05:20:10;51.22;;;22.60;;
59728;SDS011;45588;51.598;5.618;2024-01-11T05:22:35;43.53;;;20.00;;
59728;SDS011;45588;51.598;5.618;2024-01-11T05:25:01;43.75;;;21.77;;
59728;SDS011;45588;51.598;5.618;2024-01-11T05:27:26;48.92;;;23.38;;
59728;SDS011;45588;51.598;5.618;2024-01-11T05:29:52;49.30;;;23.83;;
59728;SDS011;45588;51.598;5.618;2024-01-11T05:32:17;47.08;;;23.08;;
59728;SDS011;45588;51.598;5.618;2024-01-11T05:34:42;45.67;;;22.42;;
59728;SDS011;45588;51.598;5.618;2024-01-11T05:37:07;47.72;;;21.88;;
59728;SDS011;45588;51.598;5.618;2024-01-11T05:39:32;38.17;;;18.10;;
59728;SDS011;45588;51.598;5.618;2024-01-11T05:41:58;45.25;;;20.30;;
59728;SDS011;45588;51.598;5.618;2024-01-11T05:44:23;37.15;;;16.33;;
59728;SDS011;45588;51.598;5.618;2024-01-11T05:46:48;33.38;;;15.40;;
59728;SDS011;45588;51.598;5.618;2024-01-11T05:49:13;38.83;;;16.20;;
59728;SDS011;45588;51.598;5.618;2024-01-11T05:51:38;39.30;;;17.83;;
59728;SDS011;45588;51.598;5.618;2024-01-11T05:54:03;40.08;;;18.85;;
59728;SDS011;45588;51.598;5.618;2024-01-11T05:56:29;34.97;;;15.93;;
59728;SDS011;45588;51.598;5.618;2024-01-11T05:58:54;45.45;;;20.40;;
59728;SDS011;45588;51.598;5.618;2024-01-11T06:01:19;40.28;;;19.35;;
59728;SDS011;45588;51.598;5.618;2024-01-11T06:03:44;43.38;;;21.00;;
59728;SDS011;45588;51.598;5.618;2024-01-11T06:06:10;42.28;;;19.70;;
59728;SDS011;45588;51.598;5.618;2024-01-11T06:08:36;40.13;;;19.05;;
59728;SDS011;45588;51.598;5.618;2024-01-11T06:11:01;38.65;;;18.45;;
59728;SDS011;45588;51.598;5.618;2024-01-11T06:13:26;36.10;;;16.98;;
59728;SDS011;45588;51.598;5.618;2024-01-11T06:15:52;31.52;;;15.55;;
59728;SDS011;45588;51.598;5.618;2024-01-11T06:18:18;33.22;;;16.58;;
59728;SDS011;45588;51.598;5.618;2024-01-11T06:20:43;36.70;;;15.23;;
59728;SDS011;45588;51.598;5.618;2024-01-11T06:23:08;39.25;;;16.50;;
59728;SDS011;45588;51.598;5.618;2024-01-11T06:25:33;29.08;;;15.82;;
59728;SDS011;45588;51.598;5.618;2024-01-11T06:27:59;37.10;;;14.60;;
59728;SDS011;45588;51.598;5.618;2024-01-11T06:30:24;34.15;;;12.82;;
59728;SDS011;45588;51.598;5.618;2024-01-11T06:32:49;29.83;;;14.93;;
59728;SDS011;45588;51.598;5.618;2024-01-11T06:35:14;52.97;;;22.05;;
59728;SDS011;45588;51.598;5.618;2024-01-11T06:37:39;35.65;;;17.02;;
59728;SDS011;45588;51.598;5.618;2024-01-11T06:40:05;36.88;;;18.85;;
59728;SDS011;45588;51.598;5.618;2024-01-11T06:42:33;32.65;;;16.70;;
59728;SDS011;45588;51.598;5.618;2024-01-11T06:44:58;45.22;;;22.40;;
59728;SDS011;45588;51.598;5.618;2024-01-11T06:47:23;36.92;;;16.08;;
59728;SDS011;45588;51.598;5.618;2024-01-11T06:49:48;41.38;;;21.17;;
59728;SDS011;45588;51.598;5.618;2024-01-11T06:52:13;38.33;;;18.20;;
59728;SDS011;45588;51.598;5.618;2024-01-11T06:54:39;36.95;;;16.58;;
59728;SDS011;45588;51.598;5.618;2024-01-11T06:57:04;33.95;;;16.52;;
59728;SDS011;45588;51.598;5.618;2024-01-11T06:59:29;32.22;;;16.77;;
59728;SDS011;45588;51.598;5.618;2024-01-11T07:01:54;49.25;;;19.02;;
59728;SDS011;45588;51.598;5.618;2024-01-11T07:04:20;35.65;;;17.42;;
59728;SDS011;45588;51.598;5.618;2024-01-11T07:06:45;43.05;;;21.77;;
59728;SDS011;45588;51.598;5.618;2024-01-11T07:09:10;54.20;;;23.70;;
59728;SDS011;45588;51.598;5.618;2024-01-11T07:11:36;49.97;;;24.38;;
59728;SDS011;45588;51.598;5.618;2024-01-11T07:14:01;42.47;;;19.27;;
59728;SDS011;45588;51.598;5.618;2024-01-11T07:16:26;31.33;;;15.73;;
59728;SDS011;45588;51.598;5.618;2024-01-11T07:18:51;29.35;;;15.95;;
59728;SDS011;45588;51.598;5.618;2024-01-11T07:21:21;39.55;;;19.27;;
59728;SDS011;45588;51.598;5.618;2024-01-11T07:23:48;50.80;;;20.80;;
59728;SDS011;45588;51.598;5.618;2024-01-11T07:26:13;38.92;;;17.42;;
59728;SDS011;45588;51.598;5.618;2024-01-11T07:28:38;43.53;;;20.25;;
59728;SDS011;45588;51.598;5.618;2024-01-11T07:31:04;35.95;;;17.25;;
59728;SDS011;45588;51.598;5.618;2024-01-11T07:33:29;39.50;;;18.88;;
59728;SDS011;45588;51.598;5.618;2024-01-11T07:35:54;33.33;;;17.08;;
59728;SDS011;45588;51.598;5.618;2024-01-11T07:38:20;33.65;;;16.17;;
59728;SDS011;45588;51.598;5.618;2024-01-11T07:40:45;51.10;;;20.33;;
59728;SDS011;45588;51.598;5.618;2024-01-11T07:43:11;48.88;;;23.02;;
59728;SDS011;45588;51.598;5.618;2024-01-11T07:45:36;47.53;;;19.45;;
59728;SDS011;45588;51.598;5.618;2024-01-11T07:48:01;43.95;;;21.27;;
59728;SDS011;45588;51.598;5.618;2024-01-11T07:50:28;37.85;;;16.33;;
59728;SDS011;45588;51.598;5.618;2024-01-11T07:52:53;56.50;;;22.85;;
59728;SDS011;45588;51.598;5.618;2024-01-11T07:55:18;48.03;;;23.38;;
59728;SDS011;45588;51.598;5.618;2024-01-11T07:57:48;38.83;;;16.83;;
59728;SDS011;45588;51.598;5.618;2024-01-11T08:00:15;43.85;;;20.55;;
59728;SDS011;45588;51.598;5.618;2024-01-11T08:02:40;35.40;;;16.10;;
59728;SDS011;45588;51.598;5.618;2024-01-11T08:05:05;38.17;;;19.25;;
59728;SDS011;45588;51.598;5.618;2024-01-11T08:07:30;45.33;;;20.30;;
59728;SDS011;45588;51.598;5.618;2024-01-11T08:09:56;42.30;;;18.50;;
59728;SDS011;45588;51.598;5.618;2024-01-11T08:12:21;30.27;;;17.63;;
59728;SDS011;45588;51.598;5.618;2024-01-11T08:14:46;44.60;;;20.23;;
59728;SDS011;45588;51.598;5.618;2024-01-11T08:17:13;50.03;;;22.80;;
59728;SDS011;45588;51.598;5.618;2024-01-11T08:19:38;46.25;;;21.13;;
59728;SDS011;45588;51.598;5.618;2024-01-11T08:22:04;48.90;;;25.13;;
59728;SDS011;45588;51.598;5.618;2024-01-11T08:24:30;58.40;;;29.00;;
59728;SDS011;45588;51.598;5.618;2024-01-11T08:26:55;48.20;;;23.45;;
59728;SDS011;45588;51.598;5.618;2024-01-11T08:29:20;56.72;;;26.13;;
59728;SDS011;45588;51.598;5.618;2024-01-11T08:31:47;57.08;;;26.33;;
59728;SDS011;45588;51.598;5.618;2024-01-11T08:34:12;55.72;;;27.10;;
59728;SDS011;45588;51.598;5.618;2024-01-11T08:36:37;52.15;;;23.58;;
59728;SDS011;45588;51.598;5.618;2024-01-11T08:39:04;57.08;;;22.85;;
59728;SDS011;45588;51.598;5.618;2024-01-11T08:41:30;45.40;;;21.27;;
59728;SDS011;45588;51.598;5.618;2024-01-11T08:43:56;43.55;;;21.58;;
59728;SDS011;45588;51.598;5.618;2024-01-11T08:46:27;58.20;;;26.67;;
59728;SDS011;45588;51.598;5.618;2024-01-11T08:48:52;60.92;;;25.00;;
59728;SDS011;45588;51.598;5.618;2024-01-11T08:51:18;57.35;;;27.90;;
59728;SDS011;45588;51.598;5.618;2024-01-11T08:53:43;52.05;;;23.38;;
59728;SDS011;45588;51.598;5.618;2024-01-11T08:56:08;60.67;;;31.25;;
59728;SDS011;45588;51.598;5.618;2024-01-11T08:58:33;59.50;;;29.58;;
59728;SDS011;45588;51.598;5.618;2024-01-11T09:00:58;59.40;;;31.60;;
59728;SDS011;45588;51.598;5.618;2024-01-11T09:03:24;58.10;;;28.33;;
59728;SDS011;45588;51.598;5.618;2024-01-11T09:05:49;60.97;;;27.38;;
59728;SDS011;45588;51.598;5.618;2024-01-11T09:08:14;53.42;;;28.42;;
59728;SDS011;45588;51.598;5.618;2024-01-11T09:10:39;57.67;;;26.90;;
59728;SDS011;45588;51.598;5.618;2024-01-11T09:13:06;69.90;;;33.75;;
59728;SDS011;45588;51.598;5.618;2024-01-11T09:15:31;67.90;;;32.00;;
59728;SDS011;45588;51.598;5.618;2024-01-11T09:17:58;56.83;;;27.00;;
59728;SDS011;45588;51.598;5.618;2024-01-11T09:20:25;71.38;;;34.72;;
59728;SDS011;45588;51.598;5.618;2024-01-11T09:22:50;51.67;;;25.40;;
59728;SDS011;45588;51.598;5.618;2024-01-11T09:25:15;70.18;;;30.55;;
59728;SDS011;45588;51.598;5.618;2024-01-11T09:27:40;71.72;;;32.78;;
59728;SDS011;45588;51.598;5.618;2024-01-11T09:30:06;67.13;;;33.90;;
59728;SDS011;45588;51.598;5.618;2024-01-11T09:32:31;69.97;;;30.70;;
59728;SDS011;45588;51.598;5.618;2024-01-11T09:34:56;76.55;;;32.88;;
59728;SDS011;45588;51.598;5.618;2024-01-11T09:37:21;64.55;;;28.70;;
59728;SDS011;45588;51.598;5.618;2024-01-11T09:39:47;71.28;;;32.80;;
59728;SDS011;45588;51.598;5.618;2024-01-11T09:42:12;85.43;;;37.65;;
59728;SDS011;45588;51.598;5.618;2024-01-11T09:44:38;68.13;;;33.25;;
59728;SDS011;45588;51.598;5.618;2024-01-11T09:47:05;80.53;;;33.70;;
59728;SDS011;45588;51.598;5.618;2024-01-11T09:49:31;73.20;;;32.00;;
59728;SDS011;45588;51.598;5.618;2024-01-11T09:51:57;77.53;;;33.17;;
59728;SDS011;45588;51.598;5.618;2024-01-11T09:54:24;71.53;;;31.23;;
59728;SDS011;45588;51.598;5.618;2024-01-11T09:56:50;66.70;;;32.47;;
59728;SDS011;45588;51.598;5.618;2024-01-11T09:59:17;63.25;;;30.27;;
59728;SDS011;45588;51.598;5.618;2024-01-11T10:01:43;86.50;;;39.13;;
59728;SDS011;45588;51.598;5.618;2024-01-11T10:04:08;78.40;;;36.03;;
59728;SDS011;45588;51.598;5.618;2024-01-11T10:06:33;98.47;;;39.80;;
59728;SDS011;45588;51.598;5.618;2024-01-11T10:08:59;82.32;;;35.38;;
59728;SDS011;45588;51.598;5.618;2024-01-11T10:11:24;89.75;;;42.00;;
59728;SDS011;45588;51.598;5.618;2024-01-11T10:13:55;85.63;;;39.40;;
59728;SDS011;45588;51.598;5.618;2024-01-11T10:18:46;98.90;;;45.85;;
59728;SDS011;45588;51.598;5.618;2024-01-11T10:21:11;95.45;;;40.35;;
59728;SDS011;45588;51.598;5.618;2024-01-11T10:23:36;92.78;;;39.88;;
59728;SDS011;45588;51.598;5.618;2024-01-11T10:26:02;87.45;;;37.13;;
59728;SDS011;45588;51.598;5.618;2024-01-11T10:28:27;103.15;;;43.42;;
59728;SDS011;45588;51.598;5.618;2024-01-11T10:30:53;99.55;;;45.50;;
59728;SDS011;45588;51.598;5.618;2024-01-11T10:33:19;100.93;;;44.10;;
59728;SDS011;45588;51.598;5.618;2024-01-11T10:35:45;109.35;;;47.85;;
59728;SDS011;45588;51.598;5.618;2024-01-11T10:38:10;101.80;;;45.78;;
59728;SDS011;45588;51.598;5.618;2024-01-11T10:40:36;110.47;;;46.03;;
59728;SDS011;45588;51.598;5.618;2024-01-11T10:43:01;114.72;;;43.75;;
59728;SDS011;45588;51.598;5.618;2024-01-11T10:45:27;102.30;;;46.15;;
59728;SDS011;45588;51.598;5.618;2024-01-11T10:47:53;115.18;;;50.20;;
59728;SDS011;45588;51.598;5.618;2024-01-11T10:50:19;116.45;;;47.90;;
59728;SDS011;45588;51.598;5.618;2024-01-11T10:55:36;108.10;;;43.72;;
59728;SDS011;45588;51.598;5.618;2024-01-11T10:58:01;108.43;;;47.70;;
59728;SDS011;45588;51.598;5.618;2024-01-11T11:00:28;116.88;;;50.65;;
59728;SDS011;45588;51.598;5.618;2024-01-11T11:02:54;109.93;;;46.15;;
59728;SDS011;45588;51.598;5.618;2024-01-11T11:05:19;107.65;;;48.30;;
59728;SDS011;45588;51.598;5.618;2024-01-11T11:07:46;120.13;;;49.20;;
59728;SDS011;45588;51.598;5.618;2024-01-11T11:10:12;113.40;;;46.17;;
59728;SDS011;45588;51.598;5.618;2024-01-11T11:12:38;123.18;;;54.10;;
59728;SDS011;45588;51.598;5.618;2024-01-11T11:15:05;118.85;;;51.13;;
59728;SDS011;45588;51.598;5.618;2024-01-11T11:17:31;117.68;;;46.92;;
59728;SDS011;45588;51.598;5.618;2024-01-11T11:19:56;113.55;;;46.90;;
59728;SDS011;45588;51.598;5.618;2024-01-11T11:22:22;108.97;;;43.88;;
59728;SDS011;45588;51.598;5.618;2024-01-11T11:24:47;104.38;;;44.97;;
59728;SDS011;45588;51.598;5.618;2024-01-11T11:27:15;107.25;;;44.40;;
59728;SDS011;45588;51.598;5.618;2024-01-11T11:29:41;110.70;;;43.97;;
59728;SDS011;45588;51.598;5.618;2024-01-11T11:32:06;108.45;;;41.85;;
59728;SDS011;45588;51.598;5.618;2024-01-11T11:34:41;110.75;;;47.35;;
59728;SDS011;45588;51.598;5.618;2024-01-11T11:37:10;105.70;;;40.55;;
59728;SDS011;45588;51.598;5.618;2024-01-11T11:39:35;105.20;;;43.50;;
59728;SDS011;45588;51.598;5.618;2024-01-11T11:42:01;106.00;;;45.53;;
59728;SDS011;45588;51.598;5.618;2024-01-11T11:44:26;114.13;;;49.28;;
59728;SDS011;45588;51.598;5.618;2024-01-11T11:46:51;94.05;;;42.20;;
59728;SDS011;45588;51.598;5.618;2024-01-11T11:49:17;103.75;;;43.72;;
59728;SDS011;45588;51.598;5.618;2024-01-11T11:51:42;95.60;;;39.10;;
59728;SDS011;45588;51.598;5.618;2024-01-11T11:54:08;89.38;;;38.17;;
59728;SDS011;45588;51.598;5.618;2024-01-11T11:56:34;97.60;;;39.88;;
59728;SDS011;45588;51.598;5.618;2024-01-11T11:59:00;99.15;;;40.70;;
59728;SDS011;45588;51.598;5.618;2024-01-11T12:01:27;98.57;;;39.03;;
59728;SDS011;45588;51.598;5.618;2024-01-11T12:03:53;97.13;;;41.83;;
59728;SDS011;45588;51.598;5.618;2024-01-11T12:06:19;100.78;;;41.95;;
59728;SDS011;45588;51.598;5.618;2024-01-11T12:08:44;95.95;;;39.58;;
59728;SDS011;45588;51.598;5.618;2024-01-11T12:11:12;103.70;;;44.72;;
59728;SDS011;45588;51.598;5.618;2024-01-11T12:13:37;104.28;;;44.67;;
59728;SDS011;45588;51.598;5.618;2024-01-11T12:16:03;110.80;;;52.42;;
59728;SDS011;45588;51.598;5.618;2024-01-11T12:18:28;100.00;;;49.55;;
59728;SDS011;45588;51.598;5.618;2024-01-11T12:20:53;115.28;;;52.70;;
59728;SDS011;45588;51.598;5.618;2024-01-11T12:23:18;80.10;;;32.78;;
59728;SDS011;45588;51.598;5.618;2024-01-11T12:25:44;79.53;;;36.10;;
59728;SDS011;45588;51.598;5.618;2024-01-11T12:28:09;102.72;;;40.08;;
59728;SDS011;45588;51.598;5.618;2024-01-11T12:30:35;98.25;;;42.45;;
59728;SDS011;45588;51.598;5.618;2024-01-11T12:33:00;89.43;;;38.75;;
59728;SDS011;45588;51.598;5.618;2024-01-11T12:35:29;92.47;;;42.92;;
59728;SDS011;45588;51.598;5.618;2024-01-11T12:38:04;89.13;;;37.70;;
59728;SDS011;45588;51.598;5.618;2024-01-11T12:40:34;96.50;;;43.42;;
59728;SDS011;45588;51.598;5.618;2024-01-11T12:43:05;93.07;;;42.10;;
59728;SDS011;45588;51.598;5.618;2024-01-11T12:45:36;95.63;;;42.33;;
59728;SDS011;45588;51.598;5.618;2024-01-11T12:48:02;78.55;;;34.55;;
59728;SDS011;45588;51.598;5.618;2024-01-11T12:50:28;81.47;;;37.22;;
59728;SDS011;45588;51.598;5.618;2024-01-11T12:53:13;89.22;;;37.67;;
59728;SDS011;45588;51.598;5.618;2024-01-11T12:55:43;92.28;;;43.60;;
59728;SDS011;45588;51.598;5.618;2024-01-11T12:58:08;82.25;;;39.75;;
59728;SDS011;45588;51.598;5.618;2024-01-11T13:00:34;92.38;;;44.45;;
59728;SDS011;45588;51.598;5.618;2024-01-11T13:02:59;85.85;;;40.40;;
59728;SDS011;45588;51.598;5.618;2024-01-11T13:05:25;76.10;;;36.58;;
59728;SDS011;45588;51.598;5.618;2024-01-11T13:07:50;89.88;;;43.00;;
59728;SDS011;45588;51.598;5.618;2024-01-11T13:10:16;82.25;;;32.67;;
59728;SDS011;45588;51.598;5.618;2024-01-11T13:12:42;69.95;;;32.33;;
59728;SDS011;45588;51.598;5.618;2024-01-11T13:15:07;76.70;;;34.92;;
59728;SDS011;45588;51.598;5.618;2024-01-11T13:17:32;76.28;;;34.38;;
59728;SDS011;45588;51.598;5.618;2024-01-11T13:19:57;65.32;;;31.52;;
59728;SDS011;45588;51.598;5.618;2024-01-11T13:22:24;67.05;;;29.63;;
59728;SDS011;45588;51.598;5.618;2024-01-11T13:24:49;61.17;;;26.13;;
59728;SDS011;45588;51.598;5.618;2024-01-11T13:27:15;63.05;;;27.95;;
59728;SDS011;45588;51.598;5.618;2024-01-11T13:29:40;61.92;;;26.08;;
59728;SDS011;45588;51.598;5.618;2024-01-11T13:32:05;48.15;;;22.88;;
59728;SDS011;45588;51.598;5.618;2024-01-11T13:34:30;48.78;;;21.75;;
59728;SDS011;45588;51.598;5.618;2024-01-11T13:36:56;37.42;;;16.77;;
59728;SDS011;45588;51.598;5.618;2024-01-11T13:39:21;48.85;;;18.80;;
59728;SDS011;45588;51.598;5.618;2024-01-11T13:41:48;39.65;;;15.70;;
59728;SDS011;45588;51.598;5.618;2024-01-11T13:44:13;38.90;;;16.17;;
59728;SDS011;45588;51.598;5.618;2024-01-11T13:46:39;48.25;;;17.48;;
59728;SDS011;45588;51.598;5.618;2024-01-11T13:49:04;40.08;;;15.88;;
59728;SDS011;45588;51.598;5.618;2024-01-11T13:51:29;47.95;;;19.02;;
59728;SDS011;45588;51.598;5.618;2024-01-11T13:53:57;43.13;;;16.10;;
59728;SDS011;45588;51.598;5.618;2024-01-11T13:56:22;43.30;;;14.75;;
59728;SDS011;45588;51.598;5.618;2024-01-11T13:58:48;40.60;;;15.70;;
59728;SDS011;45588;51.598;5.618;2024-01-11T14:01:13;50.03;;;15.95;;
59728;SDS011;45588;51.598;5.618;2024-01-11T14:03:38;43.65;;;13.68;;
59728;SDS011;45588;51.598;5.618;2024-01-11T14:06:04;46.95;;;17.48;;
59728;SDS011;45588;51.598;5.618;2024-01-11T14:08:29;49.40;;;17.45;;
59728;SDS011;45588;51.598;5.618;2024-01-11T14:10:54;44.97;;;15.30;;
59728;SDS011;45588;51.598;5.618;2024-01-11T14:13:20;48.65;;;16.25;;
59728;SDS011;45588;51.598;5.618;2024-01-11T14:15:45;46.65;;;15.25;;